| time (UTC) | temp C | wind direction | speed KPH | gust KPH | rain 1hr cm | rain 24hr cm | rain mn cm | humidity % | barometer mb |
| 20260508135456 | 8 | 293 | 16.1 | 43.5 | 0.00 | 0.18 | 0.23 | 80 | 1002.7 |
| 20260508134945 | 8 | 248 | 17.7 | 43.5 | 0.00 | 0.18 | 0.23 | 80 | 1002.7 |
| 20260508134432 | 8 | 293 | 16.1 | 35.4 | 0.00 | 0.18 | 0.23 | 81 | 1002.9 |
| 20260508133923 | 8 | 225 | 17.7 | 35.4 | 0.00 | 0.18 | 0.23 | 81 | 1002.8 |
| 20260508133413 | 8 | 270 | 17.7 | 38.6 | 0.00 | 0.18 | 0.23 | 81 | 1002.6 |
| 20260508132902 | 8 | 248 | 12.9 | 40.2 | 0.00 | 0.18 | 0.23 | 82 | 1002.6 |
| 20260508132357 | 8 | 293 | 17.7 | 40.2 | 0.00 | 0.18 | 0.23 | 82 | 1002.8 |
| 20260508131843 | 8 | 248 | 22.5 | 33.8 | 0.00 | 0.18 | 0.23 | 82 | 1002.7 |
| 20260508131333 | 8 | 225 | 12.9 | 33.8 | 0.00 | 0.18 | 0.23 | 83 | 1002.5 |
| 20260508130822 | 8 | 248 | 16.1 | 35.4 | 0.00 | 0.18 | 0.23 | 83 | 1002.5 |
| 20260508125802 | 8 | 225 | 12.9 | 32.2 | 0.00 | 0.18 | 0.23 | 84 | 1002.4 |
| 20260508125253 | 8 | 225 | 14.5 | 32.2 | 0.00 | 0.18 | 0.23 | 85 | 1002.3 |
| 20260508124742 | 8 | 270 | 11.3 | 25.7 | 0.00 | 0.18 | 0.23 | 85 | 1002.2 |
| 20260508124232 | 8 | 315 | 11.3 | 38.6 | 0.00 | 0.18 | 0.23 | 86 | 1002.1 |
| 20260508123721 | 8 | 293 | 11.3 | 38.6 | 0.00 | 0.18 | 0.23 | 86 | 1002.0 |
| 20260508122701 | 8 | 248 | 9.7 | 27.4 | 0.00 | 0.18 | 0.23 | 87 | 1001.6 |
| 20260508122152 | 8 | 203 | 9.7 | 27.4 | 0.00 | 0.18 | 0.23 | 87 | 1001.7 |
| 20260508121646 | 8 | 293 | 16.1 | 27.4 | 0.00 | 0.18 | 0.23 | 87 | 1001.7 |
| 20260508121131 | 8 | 270 | 11.3 | 25.7 | 0.00 | 0.18 | 0.23 | 88 | 1001.7 |
| 20260508120621 | 8 | 293 | 8.0 | 25.7 | 0.00 | 0.18 | 0.23 | 88 | 1001.7 |
| 20260508120110 | 8 | 248 | 8.0 | 25.7 | 0.00 | 0.18 | 0.23 | 88 | 1001.9 |
| 20260508115600 | 7 | 248 | 9.7 | 17.7 | 0.00 | 0.18 | 0.23 | 89 | 1002.0 |
| 20260508115051 | 7 | 270 | 9.7 | 17.7 | 0.00 | 0.18 | 0.23 | 89 | 1001.5 |
| 20260508114540 | 7 | 270 | 9.7 | 20.9 | 0.00 | 0.18 | 0.23 | 90 | 1001.3 |
| 20260508114029 | 7 | 225 | 11.3 | 20.9 | 0.00 | 0.18 | 0.23 | 90 | 1001.4 |
| 20260508113521 | 7 | 270 | 8.0 | 17.7 | 0.00 | 0.18 | 0.23 | 90 | 1001.0 |
| 20260508113023 | 7 | 293 | 12.9 | 25.7 | 0.00 | 0.18 | 0.23 | 90 | 1001.6 |
| 20260508112500 | 7 | 293 | 6.4 | 25.7 | 0.00 | 0.18 | 0.23 | 91 | 1001.3 |
| 20260508111950 | 7 | 270 | 6.4 | 22.5 | 0.00 | 0.18 | 0.23 | 91 | 1001.2 |
| 20260508111440 | 7 | 270 | 9.7 | 25.7 | 0.00 | 0.18 | 0.23 | 91 | 1001.1 |
| 20260508110930 | 7 | 248 | 8.0 | 25.7 | 0.00 | 0.18 | 0.23 | 91 | 1001.1 |
| 20260508110419 | 7 | 248 | 11.3 | 20.9 | 0.00 | 0.18 | 0.23 | 91 | 1000.9 |
| 20260508105359 | 7 | 270 | 8.0 | 25.7 | 0.00 | 0.18 | 0.23 | 91 | 1000.7 |
| 20260508104850 | 7 | 225 | 11.3 | 27.4 | 0.00 | 0.18 | 0.23 | 91 | 1001.0 |
| 20260508104340 | 7 | 270 | 9.7 | 29.0 | 0.00 | 0.18 | 0.23 | 91 | 1000.8 |
| 20260508103828 | 7 | 293 | 11.3 | 29.0 | 0.00 | 0.18 | 0.23 | 91 | 1000.7 |
| 20260508103319 | 7 | 270 | 11.3 | 29.0 | 0.00 | 0.18 | 0.23 | 91 | 1000.5 |
| 20260508102809 | 7 | 225 | 12.9 | 24.1 | 0.00 | 0.18 | 0.23 | 91 | 1000.6 |
| 20260508102259 | 7 | 248 | 9.7 | 35.4 | 0.03 | 0.18 | 0.23 | 91 | 1000.4 |
| 20260508101748 | 7 | 248 | 9.7 | 35.4 | 0.03 | 0.18 | 0.23 | 92 | 1000.3 |
| 20260508101241 | 7 | 225 | 14.5 | 32.2 | 0.03 | 0.18 | 0.23 | 92 | 1000.3 |
| 20260508100728 | 7 | 248 | 11.3 | 32.2 | 0.03 | 0.18 | 0.23 | 92 | 1000.2 |
| 20260508100218 | 7 | 270 | 12.9 | 24.1 | 0.03 | 0.18 | 0.23 | 92 | 1000.3 |
| 20260508095709 | 7 | 270 | 12.9 | 24.1 | 0.03 | 0.18 | 0.23 | 92 | 1000.1 |
| 20260508095157 | 7 | 248 | 9.7 | 22.5 | 0.03 | 0.18 | 0.23 | 93 | 1000.2 |
| 20260508094648 | 7 | 270 | 6.4 | 17.7 | 0.03 | 0.18 | 0.23 | 93 | 1000.3 |
| 20260508093629 | 7 | 270 | 9.7 | 17.7 | 0.05 | 0.18 | 0.23 | 93 | 1000.1 |
| 20260508092607 | 7 | 293 | 6.4 | 17.7 | 0.10 | 0.18 | 0.23 | 93 | 1000.0 |
| 20260508092057 | 7 | 270 | 8.0 | 24.1 | 0.05 | 0.15 | 0.20 | 93 | 999.8 |
| 20260508091557 | 7 | 248 | 8.0 | 24.1 | 0.05 | 0.15 | 0.20 | 93 | 999.9 |
| 20260508091037 | 7 | 248 | 8.0 | 22.5 | 0.05 | 0.15 | 0.20 | 93 | 999.8 |
| 20260508090527 | 7 | 248 | 9.7 | 22.5 | 0.10 | 0.15 | 0.20 | 93 | 999.7 |
| 20260508090017 | 7 | 270 | 11.3 | 22.5 | 0.10 | 0.15 | 0.20 | 93 | 999.7 |
| 20260508085507 | 7 | 248 | 12.9 | 22.5 | 0.10 | 0.15 | 0.20 | 93 | 999.5 |
| 20260508084956 | 7 | 270 | 9.7 | 22.5 | 0.15 | 0.15 | 0.20 | 93 | 999.6 |
| 20260508084446 | 7 | 293 | 6.4 | 24.1 | 0.13 | 0.13 | 0.18 | 93 | 999.7 |
| 20260508083936 | 7 | 248 | 6.4 | 24.1 | 0.13 | 0.13 | 0.18 | 93 | 999.8 |
| 20260508083426 | 7 | 203 | 8.0 | 24.1 | 0.10 | 0.10 | 0.15 | 93 | 999.6 |
| 20260508082916 | 7 | 248 | 9.7 | 29.0 | 0.10 | 0.10 | 0.15 | 92 | 999.8 |
| 20260508081346 | 7 | 270 | 9.7 | 20.9 | 0.10 | 0.10 | 0.15 | 92 | 999.9 |
| 20260508080836 | 7 | 248 | 11.3 | 20.9 | 0.10 | 0.10 | 0.15 | 92 | 999.9 |
| 20260508080326 | 7 | 270 | 11.3 | 25.7 | 0.05 | 0.05 | 0.13 | 92 | 999.8 |
| 20260508075815 | 7 | 270 | 8.0 | 25.7 | 0.05 | 0.05 | 0.13 | 92 | 1000.0 |
| 20260508075308 | 7 | 270 | 9.7 | 27.4 | 0.03 | 0.03 | 0.10 | 92 | 1000.0 |
| 20260508074755 | 7 | 270 | 6.4 | 27.4 | 0.00 | 0.00 | 0.05 | 92 | 999.8 |
| 20260508074246 | 7 | 270 | 6.4 | 17.7 | 0.00 | 0.00 | 0.05 | 92 | 1000.0 |
| 20260508073735 | 7 | 293 | 8.0 | 17.7 | 0.00 | 0.00 | 0.05 | 91 | 1000.0 |
| 20260508073224 | 7 | 270 | 8.0 | 20.9 | 0.00 | 0.00 | 0.05 | 91 | 999.8 |
| 20260508072714 | 7 | 270 | 6.4 | 32.2 | 0.00 | 0.00 | 0.05 | 91 | 1000.0 |
| 20260508071657 | 7 | 270 | 9.7 | 33.8 | 0.00 | 0.00 | 0.05 | 91 | 1000.0 |
| 20260508071145 | 7 | 293 | 9.7 | 33.8 | 0.00 | 0.00 | 0.05 | 91 | 999.9 |
| 20260508070633 | 7 | 225 | 9.7 | 0.0 | 0.00 | 0.00 | 0.05 | 91 | 999.8 |
| 20260508065557 | 7 | 248 | 12.9 | 27.4 | 0.03 | 0.13 | 0.05 | 91 | 999.9 |
| 20260508065046 | 7 | 203 | 8.0 | 27.4 | 0.03 | 0.13 | 0.05 | 91 | 1000.0 |
| 20260508064536 | 7 | 248 | 8.0 | 27.4 | 0.03 | 0.13 | 0.05 | 91 | 1000.0 |
| 20260508064025 | 7 | 293 | 6.4 | 25.7 | 0.00 | 0.10 | 0.03 | 91 | 1000.0 |
| 20260508062455 | 7 | 203 | 11.3 | 22.5 | 0.00 | 0.10 | 0.03 | 90 | 1000.1 |
| 20260508061945 | 7 | 293 | 6.4 | 32.2 | 0.00 | 0.10 | 0.03 | 89 | 1000.1 |
| 20260508061435 | 7 | 270 | 9.7 | 37.0 | 0.00 | 0.10 | 0.03 | 89 | 1000.2 |
| 20260508060925 | 7 | 293 | 19.3 | 37.0 | 0.00 | 0.10 | 0.03 | 89 | 1000.3 |
| 20260508060415 | 7 | 248 | 12.9 | 29.0 | 0.00 | 0.10 | 0.03 | 89 | 1000.0 |
| 20260508055354 | 7 | 270 | 9.7 | 29.0 | 0.00 | 0.10 | 0.03 | 89 | 1000.2 |
| 20260508054845 | 7 | 180 | 20.9 | 32.2 | 0.00 | 0.10 | 0.03 | 89 | 1000.0 |
| 20260508053824 | 7 | 248 | 12.9 | 32.2 | 0.00 | 0.10 | 0.03 | 88 | 1000.0 |
| 20260508053315 | 8 | 293 | 14.5 | 33.8 | 0.00 | 0.10 | 0.03 | 88 | 999.8 |
| 20260508052803 | 8 | 225 | 14.5 | 33.8 | 0.00 | 0.10 | 0.03 | 88 | 1000.0 |
| 20260508052254 | 8 | 248 | 12.9 | 27.4 | 0.00 | 0.10 | 0.03 | 87 | 1000.0 |
| 20260508051234 | 8 | 270 | 14.5 | 32.2 | 0.00 | 0.10 | 0.03 | 87 | 1000.0 |
| 20260508050724 | 8 | 225 | 20.9 | 40.2 | 0.00 | 0.10 | 0.03 | 86 | 1000.0 |
| 20260508050214 | 8 | 270 | 22.5 | 40.2 | 0.00 | 0.10 | 0.03 | 86 | 1000.1 |
| 20260508045704 | 8 | 293 | 20.9 | 35.4 | 0.00 | 0.10 | 0.03 | 86 | 1000.0 |
| 20260508045153 | 8 | 225 | 19.3 | 35.4 | 0.00 | 0.10 | 0.03 | 87 | 1000.1 |
| 20260508044644 | 8 | 248 | 17.7 | 35.4 | 0.00 | 0.10 | 0.03 | 88 | 999.9 |
| 20260508044133 | 8 | 225 | 25.7 | 35.4 | 0.00 | 0.10 | 0.03 | 89 | 999.9 |
| 20260508043622 | 8 | 248 | 12.9 | 29.0 | 0.00 | 0.10 | 0.03 | 89 | 999.7 |
| 20260508043113 | 8 | 225 | 16.1 | 33.8 | 0.00 | 0.10 | 0.03 | 89 | 999.8 |
| 20260508042602 | 8 | 248 | 24.1 | 33.8 | 0.00 | 0.10 | 0.03 | 90 | 999.8 |
| 20260508042105 | 8 | 248 | 14.5 | 33.8 | 0.00 | 0.10 | 0.03 | 90 | 1000.1 |
| 20260508041543 | 8 | 248 | 20.9 | 35.4 | 0.00 | 0.10 | 0.03 | 91 | 999.6 |
| 20260508041033 | 8 | 248 | 17.7 | 35.4 | 0.00 | 0.10 | 0.03 | 91 | 999.8 |
| 20260508040525 | 8 | 270 | 17.7 | 35.4 | 0.00 | 0.10 | 0.03 | 91 | 999.8 |
| 20260508040012 | 8 | 270 | 17.7 | 35.4 | 0.03 | 0.10 | 0.03 | 91 | 999.7 |
| 20260508035503 | 8 | 248 | 12.9 | 27.4 | 0.03 | 0.10 | 0.03 | 91 | 999.7 |
| 20260508034952 | 9 | 248 | 14.5 | 27.4 | 0.03 | 0.10 | 0.03 | 92 | 999.8 |
| 20260508034443 | 9 | 248 | 12.9 | 33.8 | 0.03 | 0.10 | 0.03 | 91 | 999.5 |
| 20260508033421 | 9 | 248 | 24.1 | 38.6 | 0.05 | 0.10 | 0.03 | 91 | 999.7 |
| 20260508032912 | 9 | 248 | 17.7 | 35.4 | 0.05 | 0.10 | 0.03 | 91 | 999.9 |
| 20260508032401 | 9 | 225 | 24.1 | 35.4 | 0.05 | 0.10 | 0.03 | 91 | 999.7 |
| 20260508031851 | 9 | 225 | 19.3 | 43.5 | 0.05 | 0.10 | 0.03 | 92 | 999.3 |
| 20260508030832 | 9 | 225 | 24.1 | 37.0 | 0.05 | 0.10 | 0.03 | 92 | 999.2 |
| 20260508030337 | 10 | 270 | 17.7 | 32.2 | 0.03 | 0.05 | 0.03 | 92 | 999.2 |
| 20260508025813 | 10 | 225 | 16.1 | 32.2 | 0.03 | 0.05 | 0.13 | 92 | 999.2 |
| 20260508025301 | 10 | 270 | 16.1 | 32.2 | 0.03 | 0.05 | 0.13 | 91 | 999.0 |
| 20260508024750 | 10 | 225 | 22.5 | 38.6 | 0.03 | 0.05 | 0.13 | 91 | 999.0 |
| 20260508024241 | 10 | 225 | 20.9 | 38.6 | 0.03 | 0.05 | 0.13 | 92 | 999.1 |
| 20260508023731 | 10 | 225 | 24.1 | 38.6 | 0.00 | 0.03 | 0.10 | 92 | 999.3 |
| 20260508023220 | 10 | 248 | 17.7 | 38.6 | 0.00 | 0.03 | 0.10 | 92 | 999.1 |
| 20260508022710 | 10 | 248 | 25.7 | 38.6 | 0.00 | 0.03 | 0.10 | 92 | 999.1 |
| 20260508022200 | 10 | 248 | 20.9 | 29.0 | 0.00 | 0.03 | 0.10 | 92 | 999.3 |
| 20260508021651 | 10 | 248 | 14.5 | 33.8 | 0.00 | 0.03 | 0.10 | 92 | 999.4 |
| 20260508020630 | 11 | 270 | 17.7 | 32.2 | 0.00 | 0.03 | 0.10 | 91 | 999.7 |
| 20260508015610 | 11 | 225 | 17.7 | 38.6 | 0.00 | 0.03 | 0.10 | 91 | 999.4 |
| 20260508015100 | 11 | 248 | 19.3 | 38.6 | 0.00 | 0.03 | 0.10 | 92 | 999.9 |
| 20260508014551 | 11 | 248 | 16.1 | 32.2 | 0.00 | 0.03 | 0.10 | 92 | 999.4 |
| 20260508014040 | 11 | 248 | 19.3 | 33.8 | 0.00 | 0.03 | 0.10 | 92 | 999.3 |
| 20260508013529 | 11 | 248 | 20.9 | 33.8 | 0.00 | 0.03 | 0.10 | 92 | 999.5 |
| 20260508012511 | 11 | 225 | 14.5 | 33.8 | 0.00 | 0.03 | 0.10 | 92 | 999.2 |
| 20260508011958 | 11 | 248 | 19.3 | 33.8 | 0.00 | 0.03 | 0.10 | 92 | 998.9 |
| 20260508011450 | 11 | 248 | 14.5 | 29.0 | 0.03 | 0.03 | 0.10 | 92 | 998.7 |
| 20260508010939 | 11 | 203 | 17.7 | 32.2 | 0.03 | 0.03 | 0.10 | 92 | 998.9 |
| 20260508010429 | 11 | 270 | 12.9 | 38.6 | 0.03 | 0.03 | 0.10 | 92 | 998.6 |
| 20260508005918 | 11 | 203 | 22.5 | 38.6 | 0.03 | 0.03 | 0.10 | 92 | 998.8 |
| 20260508005410 | 11 | 225 | 20.9 | 33.8 | 0.03 | 0.03 | 0.10 | 92 | 998.9 |
| 20260508004858 | 11 | 270 | 17.7 | 33.8 | 0.03 | 0.03 | 0.10 | 92 | 998.7 |
| 20260508004348 | 12 | 248 | 17.7 | 29.0 | 0.03 | 0.03 | 0.10 | 92 | 998.7 |
| 20260508003839 | 12 | 270 | 12.9 | 33.8 | 0.03 | 0.03 | 0.10 | 92 | 998.5 |
| 20260508003327 | 12 | 248 | 19.3 | 33.8 | 0.03 | 0.03 | 0.10 | 92 | 998.6 |
| 20260508002818 | 12 | 225 | 20.9 | 32.2 | 0.03 | 0.03 | 0.10 | 91 | 998.5 |
| 20260508002310 | 12 | 248 | 12.9 | 32.2 | 0.03 | 0.03 | 0.10 | 91 | 998.6 |
| 20260508001248 | 12 | 293 | 12.9 | 24.1 | 0.00 | 0.00 | 0.05 | 91 | 998.8 |
| 20260508000738 | 12 | 225 | 12.9 | 20.9 | 0.00 | 0.00 | 0.05 | 90 | 998.9 |
| 20260507235718 | 12 | 293 | 8.0 | 14.5 | 0.00 | 0.00 | 0.05 | 90 | 998.8 |
| 20260507235207 | 12 | 225 | 6.4 | 14.5 | 0.00 | 0.00 | 0.05 | 90 | 999.0 |
| 20260507234657 | 12 | 248 | 6.4 | 14.5 | 0.00 | 0.00 | 0.05 | 90 | 999.0 |
| 20260507234146 | 12 | 248 | 6.4 | 14.5 | 0.00 | 0.00 | 0.05 | 90 | 999.1 |
| 20260507233636 | 12 | 293 | 6.4 | 20.9 | 0.00 | 0.00 | 0.05 | 90 | 999.1 |
| 20260507233126 | 12 | 248 | 6.4 | 20.9 | 0.00 | 0.00 | 0.05 | 90 | 999.2 |
| 20260507232617 | 11 | 248 | 6.4 | 17.7 | 0.00 | 0.00 | 0.05 | 90 | 999.3 |
| 20260507232107 | 12 | 293 | 6.4 | 17.7 | 0.00 | 0.00 | 0.05 | 90 | 999.2 |
| 20260507231047 | 12 | 293 | 6.4 | 14.5 | 0.00 | 0.00 | 0.05 | 90 | 999.7 |
| 20260507230536 | 12 | 293 | 4.8 | 14.5 | 0.00 | 0.00 | 0.05 | 90 | 999.9 |
| 20260507230027 | 12 | 248 | 6.4 | 14.5 | 0.00 | 0.00 | 0.05 | 90 | 999.8 |
| 20260507225005 | 12 | 270 | 6.4 | 14.5 | 0.00 | 0.00 | 0.05 | 90 | 999.6 |
| 20260507224456 | 12 | 270 | 6.4 | 17.7 | 0.00 | 0.00 | 0.05 | 90 | 999.6 |
| 20260507223945 | 12 | 270 | 11.3 | 17.7 | 0.00 | 0.00 | 0.05 | 89 | 999.4 |
| 20260507223435 | 12 | 270 | 6.4 | 12.9 | 0.00 | 0.00 | 0.05 | 88 | 999.2 |
| 20260507222925 | 13 | 248 | 4.8 | 11.3 | 0.00 | 0.00 | 0.05 | 88 | 999.2 |
| 20260507222416 | 13 | 293 | 4.8 | 11.3 | 0.00 | 0.00 | 0.05 | 88 | 999.1 |
| 20260507221904 | 13 | 270 | 6.4 | 11.3 | 0.00 | 0.00 | 0.05 | 88 | 999.1 |
| 20260507221354 | 13 | 270 | 4.8 | 11.3 | 0.00 | 0.00 | 0.05 | 88 | 998.8 |
| 20260507215825 | 13 | 270 | 6.4 | 12.9 | 0.00 | 0.00 | 0.05 | 87 | 998.8 |
| 20260507215327 | 13 | 293 | 6.4 | 12.9 | 0.00 | 0.00 | 0.05 | 87 | 998.7 |
| 20260507214805 | 13 | 248 | 3.2 | 12.9 | 0.00 | 0.00 | 0.05 | 86 | 998.8 |
| 20260507214255 | 13 | 248 | 6.4 | 12.9 | 0.00 | 0.00 | 0.05 | 86 | 999.1 |
| 20260507213743 | 13 | 293 | 6.4 | 12.9 | 0.00 | 0.00 | 0.05 | 85 | 999.0 |
| 20260507213234 | 13 | 225 | 4.8 | 12.9 | 0.00 | 0.00 | 0.05 | 85 | 998.7 |
| 20260507212724 | 13 | 293 | 6.4 | 11.3 | 0.00 | 0.00 | 0.05 | 85 | 998.7 |
| 20260507212215 | 13 | 293 | 6.4 | 17.7 | 0.00 | 0.00 | 0.05 | 84 | 998.2 |
| 20260507211704 | 13 | 270 | 4.8 | 17.7 | 0.00 | 0.00 | 0.05 | 84 | 998.2 |
| 20260507210642 | 13 | 270 | 6.4 | 14.5 | 0.00 | 0.00 | 0.05 | 83 | 998.3 |
| 20260507210133 | 13 | 270 | 6.4 | 14.5 | 0.00 | 0.00 | 0.05 | 83 | 998.4 |
| 20260507205623 | 13 | 293 | 4.8 | 14.5 | 0.00 | 0.00 | 0.05 | 83 | 998.5 |
| 20260507205112 | 13 | 225 | 8.0 | 14.5 | 0.00 | 0.00 | 0.05 | 83 | 998.6 |
| 20260507204055 | 13 | 293 | 6.4 | 12.9 | 0.00 | 0.00 | 0.05 | 82 | 998.7 |
| 20260507203542 | 13 | 270 | 3.2 | 17.7 | 0.00 | 0.00 | 0.05 | 82 | 998.3 |
| 20260507203034 | 13 | 270 | 3.2 | 17.7 | 0.00 | 0.00 | 0.05 | 82 | 997.8 |
| 20260507202523 | 13 | 203 | 6.4 | 14.5 | 0.00 | 0.00 | 0.05 | 82 | 997.4 |
| 20260507202012 | 13 | 270 | 4.8 | 17.7 | 0.00 | 0.00 | 0.05 | 82 | 997.3 |
| 20260507201503 | 13 | 248 | 8.0 | 17.7 | 0.00 | 0.00 | 0.05 | 82 | 997.0 |
| 20260507200952 | 13 | 248 | 6.4 | 27.4 | 0.00 | 0.00 | 0.05 | 81 | 996.9 |
| 20260507200454 | 13 | 225 | 8.0 | 32.2 | 0.00 | 0.00 | 0.05 | 81 | 996.7 |
| 20260507195932 | 13 | 293 | 9.7 | 32.2 | 0.00 | 0.00 | 0.05 | 81 | 996.6 |
| 20260507195428 | 13 | 225 | 17.7 | 37.0 | 0.00 | 0.00 | 0.05 | 81 | 996.4 |
| 20260507194912 | 13 | 270 | 9.7 | 37.0 | 0.00 | 0.00 | 0.05 | 81 | 997.1 |
| 20260507194401 | 13 | 270 | 12.9 | 24.1 | 0.00 | 0.00 | 0.05 | 80 | 997.4 |
| 20260507193852 | 14 | 225 | 8.0 | 25.7 | 0.00 | 0.00 | 0.05 | 81 | 997.5 |
| 20260507192321 | 14 | 270 | 6.4 | 20.9 | 0.00 | 0.00 | 0.05 | 81 | 998.7 |
| 20260507191811 | 14 | 248 | 6.4 | 17.7 | 0.00 | 0.00 | 0.05 | 81 | 998.8 |
| 20260507191302 | 14 | 248 | 6.4 | 17.7 | 0.00 | 0.00 | 0.05 | 80 | 998.9 |
| 20260507190751 | 14 | 293 | 12.9 | 17.7 | 0.00 | 0.00 | 0.05 | 80 | 999.4 |
| 20260507190240 | 15 | 248 | 9.7 | 17.7 | 0.00 | 0.00 | 0.05 | 80 | 999.4 |
| 20260507185221 | 15 | 293 | 12.9 | 25.7 | 0.00 | 0.00 | 0.05 | 79 | 999.7 |
| 20260507184711 | 15 | 293 | 6.4 | 17.7 | 0.00 | 0.00 | 0.05 | 80 | 999.5 |
| 20260507184200 | 15 | 293 | 9.7 | 22.5 | 0.00 | 0.00 | 0.05 | 79 | 999.8 |
| 20260507183650 | 15 | 293 | 11.3 | 22.5 | 0.00 | 0.00 | 0.05 | 79 | 999.7 |
| 20260507183139 | 15 | 270 | 8.0 | 17.7 | 0.00 | 0.00 | 0.05 | 79 | 999.6 |
| 20260507182632 | 15 | 293 | 11.3 | 17.7 | 0.00 | 0.00 | 0.05 | 79 | 999.4 |
| 20260507182116 | 15 | 225 | 11.3 | 17.7 | 0.00 | 0.00 | 0.05 | 79 | 999.8 |
| 20260507181606 | 15 | 270 | 11.3 | 22.5 | 0.00 | 0.00 | 0.05 | 79 | 999.4 |
| 20260507181057 | 15 | 248 | 8.0 | 22.5 | 0.00 | 0.00 | 0.05 | 79 | 999.6 |
| 20260507180549 | 15 | 270 | 6.4 | 25.7 | 0.00 | 0.00 | 0.05 | 80 | 999.0 |
| 20260507180040 | 15 | 248 | 6.4 | 25.7 | 0.00 | 0.00 | 0.05 | 80 | 999.0 |
| 20260507175530 | 15 | 270 | 9.7 | 20.9 | 0.00 | 0.00 | 0.05 | 80 | 999.2 |
| 20260507175019 | 15 | 248 | 8.0 | 14.5 | 0.00 | 0.00 | 0.05 | 80 | 999.3 |
| 20260507174515 | 15 | 293 | 6.4 | 14.5 | 0.00 | 0.00 | 0.05 | 81 | 999.1 |
| 20260507174000 | 15 | 270 | 9.7 | 24.1 | 0.00 | 0.00 | 0.05 | 82 | 999.0 |
| 20260507173449 | 15 | 293 | 12.9 | 24.1 | 0.00 | 0.00 | 0.05 | 82 | 998.9 |
| 20260507172938 | 15 | 293 | 12.9 | 24.1 | 0.00 | 0.00 | 0.05 | 81 | 999.2 |
| 20260507172431 | 15 | 225 | 9.7 | 25.7 | 0.00 | 0.00 | 0.05 | 82 | 998.9 |
| 20260507171918 | 15 | 293 | 9.7 | 25.7 | 0.00 | 0.00 | 0.05 | 82 | 999.2 |
| 20260507171409 | 15 | 248 | 6.4 | 27.4 | 0.00 | 0.00 | 0.05 | 83 | 999.2 |
| 20260507170900 | 15 | 270 | 12.9 | 27.4 | 0.00 | 0.00 | 0.05 | 83 | 999.4 |
| 20260507170348 | 15 | 248 | 8.0 | 20.9 | 0.00 | 0.00 | 0.05 | 83 | 999.3 |
| 20260507165840 | 15 | 270 | 8.0 | 20.9 | 0.00 | 0.00 | 0.05 | 84 | 999.6 |
| 20260507165328 | 15 | 293 | 6.4 | 17.7 | 0.00 | 0.00 | 0.05 | 84 | 999.3 |
| 20260507164307 | 14 | 293 | 8.0 | 20.9 | 0.00 | 0.00 | 0.05 | 84 | 999.5 |
| 20260507163248 | 14 | 203 | 12.9 | 29.0 | 0.00 | 0.00 | 0.05 | 85 | 999.2 |
| 20260507162228 | 14 | 203 | 8.0 | 17.7 | 0.00 | 0.00 | 0.05 | 85 | 999.4 |
| 20260507161717 | 14 | 293 | 8.0 | 17.7 | 0.00 | 0.00 | 0.05 | 85 | 999.2 |
| 20260507161208 | 14 | 293 | 6.4 | 12.9 | 0.00 | 0.00 | 0.05 | 85 | 999.3 |
| 20260507160658 | 15 | 270 | 4.8 | 17.7 | 0.00 | 0.00 | 0.05 | 85 | 999.1 |
| 20260507155126 | 15 | 270 | 11.3 | 20.9 | 0.00 | 0.00 | 0.05 | 85 | 998.6 |
| 20260507154617 | 15 | 248 | 11.3 | 20.9 | 0.00 | 0.00 | 0.05 | 85 | 998.8 |
| 20260507154115 | 15 | 270 | 6.4 | 17.7 | 0.00 | 0.00 | 0.05 | 87 | 999.2 |
| 20260507153558 | 15 | 248 | 6.4 | 17.7 | 0.00 | 0.00 | 0.05 | 87 | 999.4 |
| 20260507153056 | 14 | 270 | 4.8 | 17.7 | 0.00 | 0.00 | 0.05 | 87 | 999.9 |
| 20260507152026 | 14 | 270 | 4.8 | 17.7 | 0.00 | 0.00 | 0.05 | 86 | 1000.1 |
| 20260507151516 | 14 | 270 | 11.3 | 17.7 | 0.00 | 0.00 | 0.05 | 86 | 1000.1 |
| 20260507151006 | 14 | 270 | 6.4 | 17.7 | 0.00 | 0.00 | 0.05 | 87 | 999.9 |
| 20260507150456 | 14 | 225 | 6.4 | 17.7 | 0.00 | 0.00 | 0.05 | 87 | 1000.0 |
| 20260507145945 | 13 | 270 | 11.3 | 20.9 | 0.00 | 0.00 | 0.05 | 87 | 1000.2 |
| 20260507145436 | 14 | 270 | 8.0 | 22.5 | 0.00 | 0.00 | 0.05 | 88 | 999.7 |
| 20260507144926 | 14 | 225 | 12.9 | 22.5 | 0.00 | 0.00 | 0.05 | 88 | 1000.3 |
| 20260507144415 | 14 | 203 | 11.3 | 17.7 | 0.00 | 0.00 | 0.05 | 89 | 999.9 |
| 20260507143355 | 14 | 293 | 8.0 | 20.9 | 0.00 | 0.00 | 0.05 | 90 | 1000.0 |
| 20260507142845 | 15 | 225 | 6.4 | 17.7 | 0.00 | 0.00 | 0.05 | 90 | 999.9 |
| 20260507142334 | 15 | 248 | 6.4 | 17.7 | 0.00 | 0.00 | 0.05 | 90 | 999.8 |
| 20260507141824 | 15 | 225 | 9.7 | 17.7 | 0.00 | 0.00 | 0.05 | 90 | 999.8 |
| 20260507140804 | 15 | 270 | 4.8 | 17.7 | 0.00 | 0.00 | 0.05 | 90 | 1000.1 |
| 20260507140254 | 15 | 270 | 3.2 | 17.7 | 0.00 | 0.00 | 0.05 | 90 | 999.7 |